Time;durP1;ratioP1;P1;durP2;ratioP2;P2;SDS_P1;SDS_P2;PMS_P1;PMS_P2;Temp;Humidity;BMP_temperature;BMP_pressure;BME280_temperature;BME280_humidity;BME280_pressure;Samples;Min_cycle;Max_cycle;Signal;HPM_P1;HPM_P2
2022/04/02 00:02:25;;;;;;;4.18;2.85;;;1.40;99.90;;;;;;5013945;28;20336;-63
2022/04/02 00:04:51;;;;;;;6.82;2.90;;;1.40;99.90;;;;;;5013937;28;20372;-63
2022/04/02 00:07:16;;;;;;;7.70;3.13;;;1.40;99.90;;;;;;5013696;28;20033;-62
2022/04/02 00:09:43;;;;;;;5.13;2.78;;;1.40;99.90;;;;;;4996693;28;20407;-63
2022/04/02 00:12:09;;;;;;;6.47;3.20;;;1.50;99.90;;;;;;5013639;28;20470;-64
2022/04/02 00:14:35;;;;;;;5.38;2.88;;;1.50;99.90;;;;;;4996284;28;20475;-62
2022/04/02 00:17:01;;;;;;;8.55;3.38;;;1.50;99.90;;;;;;5013760;28;20058;-62
2022/04/02 00:19:29;;;;;;;5.85;3.30;;;1.60;99.90;;;;;;4996685;28;20072;-62
2022/04/02 00:21:54;;;;;;;5.72;3.15;;;1.60;99.90;;;;;;4996369;28;20467;-63
2022/04/02 00:24:20;;;;;;;5.00;2.70;;;1.60;99.90;;;;;;5014260;28;20048;-63
2022/04/02 00:26:45;;;;;;;5.53;3.03;;;1.60;99.90;;;;;;5013724;28;20418;-62
2022/04/02 00:29:11;;;;;;;5.95;2.67;;;1.60;99.90;;;;;;5014042;28;20048;-63
2022/04/02 00:31:37;;;;;;;5.85;3.10;;;1.50;99.90;;;;;;5013576;28;20065;-63
2022/04/02 00:34:03;;;;;;;6.55;3.00;;;1.50;99.90;;;;;;5013785;28;20038;-63
2022/04/02 00:36:28;;;;;;;4.88;2.50;;;1.50;99.90;;;;;;5013509;28;20056;-62
2022/04/02 00:38:54;;;;;;;5.07;3.03;;;1.50;99.90;;;;;;4996807;28;20066;-64
2022/04/02 00:41:20;;;;;;;5.95;3.08;;;1.50;99.90;;;;;;4996429;28;20128;-63
2022/04/02 00:44:20;;;;;;;6.03;2.85;;;1.50;99.90;;;;;;4995960;28;20133;-63
2022/04/02 00:46:47;;;;;;;4.68;2.90;;;1.50;99.90;;;;;;4992408;28;20058;-63
2022/04/02 00:49:14;;;;;;;5.43;2.72;;;1.50;99.90;;;;;;4993911;28;20050;-64
2022/04/02 00:51:41;;;;;;;5.55;2.75;;;1.50;99.90;;;;;;4993668;28;20049;-64
2022/04/02 00:54:15;;;;;;;6.07;2.75;;;1.60;99.90;;;;;;4994011;28;20364;-63
2022/04/02 00:56:42;;;;;;;3.97;2.47;;;1.50;99.90;;;;;;5006413;28;20046;-63
2022/04/02 00:59:08;;;;;;;7.38;2.40;;;1.60;99.90;;;;;;5017033;28;20371;-62
2022/04/02 01:01:37;;;;;;;4.35;2.90;;;1.60;99.90;;;;;;5016961;28;20073;-62
2022/04/02 01:04:04;;;;;;;5.38;2.70;;;1.60;99.90;;;;;;5017250;28;20469;-62
2022/04/02 01:06:32;;;;;;;7.57;2.80;;;1.60;99.90;;;;;;5017078;28;20033;-64
2022/04/02 01:08:58;;;;;;;6.43;2.50;;;1.60;99.90;;;;;;5017307;28;20058;-63
2022/04/02 01:11:35;;;;;;;9.90;5.57;;;1.70;99.90;;;;;;5017291;28;20359;-64
2022/04/02 01:14:01;;;;;;;5.60;3.20;;;1.70;99.90;;;;;;5016946;28;20501;-63
2022/04/02 01:16:27;;;;;;;5.60;2.70;;;1.70;99.90;;;;;;5016815;28;20073;-63
2022/04/02 01:18:52;;;;;;;4.95;2.67;;;1.80;99.90;;;;;;5017070;28;20052;-63
2022/04/02 01:21:18;;;;;;;6.47;3.10;;;1.80;99.90;;;;;;5017287;28;20042;-62
2022/04/02 01:23:44;;;;;;;10.70;2.95;;;1.80;99.90;;;;;;5016625;28;20069;-62
2022/04/02 01:26:10;;;;;;;6.13;2.80;;;1.80;99.90;;;;;;5016729;28;20491;-64
2022/04/02 01:28:35;;;;;;;6.28;3.13;;;1.70;99.90;;;;;;5016707;28;20422;-63
2022/04/02 01:31:04;;;;;;;5.00;3.05;;;1.70;99.90;;;;;;5015867;28;20109;-64
2022/04/02 01:33:30;;;;;;;6.28;2.80;;;1.80;99.90;;;;;;4999149;28;20030;-64
2022/04/02 01:36:00;;;;;;;6.60;3.00;;;1.80;99.90;;;;;;5003777;28;20510;-63
2022/04/02 01:38:27;;;;;;;5.25;2.92;;;1.70;99.90;;;;;;4997162;28;20132;-63
2022/04/02 01:40:53;;;;;;;4.55;2.78;;;1.70;99.90;;;;;;4996464;28;20046;-62
2022/04/02 01:43:19;;;;;;;6.28;2.78;;;1.80;99.90;;;;;;4995966;28;20101;-63
2022/04/02 01:45:45;;;;;;;4.45;2.75;;;1.70;99.90;;;;;;4996332;28;20069;-63
2022/04/02 01:48:11;;;;;;;6.25;2.85;;;1.70;99.90;;;;;;4995926;28;20057;-63
2022/04/02 01:50:37;;;;;;;5.97;2.40;;;1.60;99.90;;;;;;4996013;28;20077;-63
2022/04/02 01:53:03;;;;;;;6.88;3.25;;;1.60;99.90;;;;;;4996060;28;20460;-63
2022/04/02 01:55:28;;;;;;;6.82;3.03;;;1.60;99.90;;;;;;4996903;28;20068;-63
2022/04/02 01:57:54;;;;;;;5.63;2.97;;;1.60;99.90;;;;;;5014833;28;20040;-64
2022/04/02 02:00:21;;;;;;;6.53;3.25;;;1.50;99.90;;;;;;5016235;28;20041;-63
2022/04/02 02:02:47;;;;;;;5.28;3.00;;;1.50;99.90;;;;;;5015492;28;20439;-62
2022/04/02 02:05:13;;;;;;;7.00;3.30;;;1.50;99.90;;;;;;5016185;28;20121;-62
2022/04/02 02:07:39;;;;;;;5.82;3.13;;;1.60;99.90;;;;;;5014935;28;20368;-62
2022/04/02 02:10:05;;;;;;;6.88;2.92;;;1.50;99.90;;;;;;4998893;28;20459;-62
2022/04/02 02:12:30;;;;;;;4.47;2.22;;;1.50;99.90;;;;;;5015719;28;20056;-63
2022/04/02 02:14:56;;;;;;;4.95;2.83;;;1.50;99.90;;;;;;5015712;28;20522;-62
2022/04/02 02:17:22;;;;;;;5.38;2.97;;;1.50;99.90;;;;;;5015060;28;20107;-62
2022/04/02 02:19:48;;;;;;;7.47;3.25;;;1.50;99.90;;;;;;5015972;28;20034;-62
2022/04/02 02:22:13;;;;;;;6.18;2.72;;;1.60;99.90;;;;;;5015455;28;20038;-62
2022/04/02 02:24:39;;;;;;;8.32;3.40;;;1.70;99.90;;;;;;4998420;28;20069;-62
2022/04/02 02:27:07;;;;;;;8.68;3.75;;;1.60;99.90;;;;;;5015115;28;20109;-62
2022/04/02 02:29:32;;;;;;;5.97;3.33;;;1.60;99.90;;;;;;5015702;28;20080;-63
2022/04/02 02:31:58;;;;;;;5.82;3.15;;;1.60;99.90;;;;;;5015439;28;20085;-63
2022/04/02 02:37:09;;;;;;;5.85;2.80;;;1.50;99.90;;;;;;5015267;28;20041;-64
2022/04/02 02:39:35;;;;;;;5.50;3.25;;;1.50;99.90;;;;;;4997980;28;20046;-62
2022/04/02 02:42:00;;;;;;;6.30;3.05;;;1.60;99.90;;;;;;5015086;28;20049;-64
2022/04/02 02:44:26;;;;;;;7.30;3.10;;;1.50;99.90;;;;;;5015668;28;20459;-63
2022/04/02 02:46:51;;;;;;;5.50;2.78;;;1.50;99.90;;;;;;5015051;28;20026;-63
2022/04/02 02:49:17;;;;;;;5.38;2.80;;;1.40;99.90;;;;;;5015021;28;20367;-63
2022/04/02 02:51:42;;;;;;;6.47;3.05;;;1.40;99.90;;;;;;5014936;28;20120;-63
2022/04/02 02:54:08;;;;;;;5.72;3.13;;;1.40;99.90;;;;;;4997745;28;20038;-62
2022/04/02 02:56:37;;;;;;;6.45;3.15;;;1.40;99.90;;;;;;5015021;28;20177;-63
2022/04/02 02:59:04;;;;;;;5.05;3.03;;;1.40;99.90;;;;;;5015257;28;20117;-64
2022/04/02 03:01:30;;;;;;;6.15;2.60;;;1.30;99.90;;;;;;5014667;28;20044;-62
2022/04/02 03:03:56;;;;;;;5.75;2.70;;;1.30;99.90;;;;;;5015274;28;20045;-63
2022/04/02 03:06:22;;;;;;;5.22;2.97;;;1.30;99.90;;;;;;5014626;28;20160;-63
2022/04/02 03:08:48;;;;;;;7.13;3.22;;;1.20;99.90;;;;;;5015092;28;20053;-63
2022/04/02 03:11:14;;;;;;;7.30;3.20;;;1.30;99.90;;;;;;5015115;28;20050;-62
2022/04/02 03:13:40;;;;;;;4.72;2.90;;;1.30;99.90;;;;;;5013466;28;20033;-63
2022/04/02 03:16:06;;;;;;;6.63;3.13;;;1.30;99.90;;;;;;5014302;28;20056;-62
2022/04/02 03:18:32;;;;;;;7.43;3.63;;;1.30;99.90;;;;;;4996994;28;20037;-62
2022/04/02 03:20:59;;;;;;;7.97;2.90;;;1.30;99.90;;;;;;4999709;28;20097;-63
2022/04/02 03:23:25;;;;;;;5.93;2.80;;;1.30;99.90;;;;;;4994270;28;20061;-63
2022/04/02 03:25:51;;;;;;;6.40;3.40;;;1.30;99.90;;;;;;4994623;28;20488;-63
2022/04/02 03:28:17;;;;;;;7.18;3.33;;;1.20;99.90;;;;;;4994172;28;20034;-62
2022/04/02 03:30:46;;;;;;;5.25;2.75;;;1.30;99.90;;;;;;4993092;28;20066;-62
2022/04/02 03:33:11;;;;;;;6.40;3.15;;;1.20;99.90;;;;;;4993996;28;20034;-64
2022/04/02 03:35:37;;;;;;;5.65;3.15;;;1.20;99.90;;;;;;4977179;28;20034;-62
2022/04/02 03:38:03;;;;;;;5.70;3.05;;;1.10;99.90;;;;;;5010359;28;20053;-63
2022/04/02 03:40:31;;;;;;;6.30;3.50;;;1.20;99.90;;;;;;5014201;28;20038;-62
2022/04/02 03:42:58;;;;;;;4.93;3.05;;;1.20;99.90;;;;;;5014295;28;20073;-63
2022/04/02 03:45:23;;;;;;;4.65;2.95;;;1.10;99.90;;;;;;5014507;28;20042;-62
2022/04/02 03:47:49;;;;;;;7.47;3.25;;;1.10;99.90;;;;;;5013715;28;20541;-62
2022/04/02 03:50:15;;;;;;;5.93;3.28;;;1.20;99.90;;;;;;5014321;28;20034;-62
2022/04/02 03:52:41;;;;;;;5.88;3.25;;;1.20;99.90;;;;;;5013788;28;20459;-63
2022/04/02 03:55:08;;;;;;;5.25;3.20;;;1.20;99.90;;;;;;4996817;28;20045;-62
2022/04/02 03:57:35;;;;;;;5.65;3.30;;;1.10;99.90;;;;;;5013942;28;20048;-62
2022/04/02 04:00:02;;;;;;;6.30;3.05;;;1.10;99.90;;;;;;5014239;28;20030;-64
2022/04/02 04:02:28;;;;;;;7.32;3.22;;;1.10;99.90;;;;;;5013755;28;20408;-62
2022/04/02 04:04:53;;;;;;;6.22;3.35;;;1.10;99.90;;;;;;5014112;28;20125;-63
2022/04/02 04:07:19;;;;;;;7.40;3.35;;;1.20;99.90;;;;;;5013753;28;20042;-62
2022/04/02 04:09:45;;;;;;;5.97;3.35;;;1.10;99.90;;;;;;5014314;28;20083;-63
2022/04/02 04:12:11;;;;;;;7.40;3.20;;;1.10;99.90;;;;;;5013905;28;20117;-62
2022/04/02 04:14:37;;;;;;;5.75;3.17;;;1.00;99.90;;;;;;5013827;28;20416;-62
2022/04/02 04:17:03;;;;;;;6.43;3.33;;;1.00;99.90;;;;;;5013557;28;20042;-63
2022/04/02 04:19:28;;;;;;;7.70;3.70;;;0.90;99.90;;;;;;5014168;28;20052;-64
2022/04/02 04:21:55;;;;;;;11.95;3.58;;;0.90;99.90;;;;;;5013577;28;20030;-64
2022/04/02 04:24:21;;;;;;;7.28;3.05;;;0.90;99.90;;;;;;5013612;28;20042;-63
2022/04/02 04:26:46;;;;;;;10.32;3.25;;;0.80;99.90;;;;;;5013563;28;20048;-62
2022/04/02 04:29:12;;;;;;;10.73;3.95;;;0.90;99.90;;;;;;5014293;28;20053;-63
2022/04/02 04:31:38;;;;;;;10.50;3.80;;;1.00;99.90;;;;;;5017560;28;20080;-63
2022/04/02 04:34:04;;;;;;;9.90;3.67;;;0.90;99.90;;;;;;5017948;28;20048;-62
2022/04/02 04:36:30;;;;;;;8.10;3.40;;;0.80;99.90;;;;;;5017526;28;20029;-63
2022/04/02 04:38:56;;;;;;;7.20;3.15;;;0.70;99.90;;;;;;5017587;28;20443;-63
2022/04/02 04:41:22;;;;;;;6.55;3.00;;;0.70;99.90;;;;;;5017234;28;20486;-62
2022/04/02 04:43:49;;;;;;;6.70;3.03;;;0.70;99.90;;;;;;5017665;28;20034;-62
2022/04/02 04:46:16;;;;;;;4.57;2.50;;;0.80;99.90;;;;;;4999540;28;20046;-63
2022/04/02 04:48:42;;;;;;;5.82;3.05;;;0.80;99.90;;;;;;5017563;28;20033;-62
2022/04/02 04:51:09;;;;;;;6.68;2.67;;;0.70;99.90;;;;;;5017644;28;20042;-63
2022/04/02 04:53:36;;;;;;;6.38;2.80;;;0.70;99.90;;;;;;5017412;28;20451;-62
2022/04/02 04:56:02;;;;;;;6.70;2.80;;;0.70;99.90;;;;;;5017075;28;20045;-63
2022/04/02 04:58:27;;;;;;;6.20;2.95;;;0.70;99.90;;;;;;5017355;28;20474;-63
2022/04/02 05:00:55;;;;;;;4.90;2.70;;;0.70;99.90;;;;;;5017188;28;20033;-63
2022/04/02 05:03:25;;;;;;;6.40;3.08;;;0.70;99.90;;;;;;5016972;28;20038;-63
2022/04/02 05:05:52;;;;;;;5.53;2.88;;;0.70;99.90;;;;;;5016811;28;20034;-62
2022/04/02 05:08:19;;;;;;;7.10;3.10;;;0.70;99.90;;;;;;5017152;28;20042;-62
2022/04/02 05:10:45;;;;;;;7.05;3.00;;;0.70;99.90;;;;;;5017099;28;20355;-63
2022/04/02 05:13:14;;;;;;;7.63;3.00;;;0.80;99.90;;;;;;5016412;28;20483;-62
2022/04/02 05:15:44;;;;;;;6.38;2.60;;;0.70;99.90;;;;;;5016501;28;20395;-62
2022/04/02 05:18:11;;;;;;;7.40;3.15;;;0.80;99.90;;;;;;5016297;28;20128;-62
2022/04/02 05:20:41;;;;;;;8.27;2.90;;;0.70;99.90;;;;;;4999360;28;20045;-62
2022/04/02 05:23:07;;;;;;;5.95;2.80;;;0.70;99.90;;;;;;5015948;28;20038;-63
2022/04/02 05:25:34;;;;;;;5.53;2.78;;;0.70;99.90;;;;;;5003370;28;20121;-62
2022/04/02 05:28:05;;;;;;;5.40;2.85;;;0.70;99.90;;;;;;4999113;28;20046;-62
2022/04/02 05:30:34;;;;;;;5.55;2.80;;;0.80;99.90;;;;;;4997946;28;20046;-62
2022/04/02 05:33:01;;;;;;;5.22;2.80;;;0.80;99.90;;;;;;5016327;28;20048;-62
2022/04/02 05:35:26;;;;;;;6.93;2.85;;;0.80;99.90;;;;;;5015139;28;20054;-62
2022/04/02 05:37:52;;;;;;;7.20;2.95;;;0.90;99.90;;;;;;5014938;28;20042;-62
2022/04/02 05:40:18;;;;;;;5.95;3.00;;;1.00;99.90;;;;;;5011968;28;20375;-62
2022/04/02 05:42:45;;;;;;;6.38;3.10;;;1.10;99.90;;;;;;5011354;28;20584;-63
2022/04/02 05:45:11;;;;;;;6.53;3.33;;;1.10;99.90;;;;;;5016428;28;20367;-63
2022/04/02 05:47:49;;;;;;;6.43;3.13;;;1.20;99.90;;;;;;5016006;28;20026;-63
2022/04/02 05:50:21;;;;;;;8.57;3.30;;;1.20;99.90;;;;;;5015396;28;20784;-64
2022/04/02 05:52:49;;;;;;;6.80;3.13;;;1.30;99.90;;;;;;4998163;28;20033;-62
2022/04/02 05:55:15;;;;;;;7.63;3.42;;;1.40;99.90;;;;;;5014083;28;20049;-63
2022/04/02 05:57:42;;;;;;;7.90;3.33;;;1.40;99.90;;;;;;5014280;28;20451;-61
2022/04/02 06:00:10;;;;;;;7.07;3.30;;;1.50;99.90;;;;;;5014599;28;20041;-63
2022/04/02 06:02:38;;;;;;;7.75;3.78;;;1.80;99.90;;;;;;4997852;28;20104;-63
2022/04/02 06:05:04;;;;;;;8.50;3.00;;;1.90;99.90;;;;;;5013950;28;20049;-63
2022/04/02 06:07:30;;;;;;;8.23;3.33;;;2.00;99.90;;;;;;5015169;28;20037;-65
2022/04/02 06:09:56;;;;;;;6.88;3.03;;;2.30;99.90;;;;;;4997701;28;20038;-63
2022/04/02 06:12:22;;;;;;;9.70;3.40;;;2.40;99.90;;;;;;4997822;28;20523;-63
2022/04/02 06:14:48;;;;;;;11.15;3.20;;;2.50;99.90;;;;;;4997784;28;20123;-63
2022/04/02 06:17:14;;;;;;;9.05;2.90;;;2.50;99.90;;;;;;5015107;28;20364;-65
2022/04/02 06:19:39;;;;;;;5.35;2.83;;;2.70;99.90;;;;;;4994771;28;20073;-63
2022/04/02 06:22:06;;;;;;;5.95;2.80;;;3.10;99.90;;;;;;5012578;28;20045;-64
2022/04/02 06:24:33;;;;;;;6.20;2.80;;;3.20;99.90;;;;;;5015408;28;20046;-63
2022/04/02 06:26:59;;;;;;;7.53;2.72;;;3.30;99.90;;;;;;4997744;28;20037;-61
2022/04/02 06:29:25;;;;;;;6.38;2.90;;;3.50;99.90;;;;;;4998411;28;20116;-64
2022/04/02 06:31:51;;;;;;;8.13;3.05;;;3.60;99.90;;;;;;5015310;28;20316;-63
2022/04/02 06:34:16;;;;;;;8.35;2.92;;;3.20;99.90;;;;;;5014258;28;20048;-64
2022/04/02 06:36:42;;;;;;;6.38;3.00;;;3.30;99.90;;;;;;5014905;28;20438;-64
2022/04/02 06:39:08;;;;;;;7.65;2.83;;;3.20;99.90;;;;;;5015689;28;20034;-64
2022/04/02 06:41:33;;;;;;;4.85;2.63;;;3.40;99.90;;;;;;5014866;28;20061;-63
2022/04/02 06:43:59;;;;;;;6.28;3.03;;;3.50;99.90;;;;;;5015553;28;20042;-62
2022/04/02 06:46:25;;;;;;;5.28;2.65;;;3.70;99.90;;;;;;5015099;28;20038;-64
2022/04/02 06:48:50;;;;;;;7.18;2.60;;;4.20;99.90;;;;;;5015224;28;20366;-63
2022/04/02 06:51:17;;;;;;;6.63;2.67;;;4.30;99.90;;;;;;4997412;28;20042;-64
2022/04/02 06:53:43;;;;;;;4.82;2.20;;;4.90;99.90;;;;;;5014889;28;20061;-64
2022/04/02 06:56:08;;;;;;;5.43;2.70;;;5.10;99.90;;;;;;5014982;28;20045;-63
2022/04/02 06:58:36;;;;;;;6.28;2.58;;;5.40;99.90;;;;;;5015362;28;20041;-63
2022/04/02 07:01:02;;;;;;;6.00;2.53;;;5.80;99.90;;;;;;4997249;28;20046;-64
2022/04/02 07:03:28;;;;;;;5.63;2.80;;;5.90;99.90;;;;;;5015180;28;20046;-63
2022/04/02 07:05:53;;;;;;;5.65;2.55;;;5.60;99.90;;;;;;4997797;28;20048;-64
2022/04/02 07:08:19;;;;;;;5.78;2.60;;;5.60;99.90;;;;;;5013689;28;20192;-63
2022/04/02 07:10:45;;;;;;;6.78;2.97;;;5.40;99.90;;;;;;5015009;28;20096;-64
2022/04/02 07:13:10;;;;;;;6.18;2.67;;;5.60;99.90;;;;;;4996761;28;20052;-63
2022/04/02 07:15:39;;;;;;;6.00;2.63;;;5.40;99.90;;;;;;4997297;28;20116;-64
2022/04/02 07:18:09;;;;;;;6.85;2.83;;;5.20;99.90;;;;;;5014222;28;20471;-63
2022/04/02 07:20:38;;;;;;;5.85;2.60;;;5.10;99.90;;;;;;5014486;28;20117;-63
2022/04/02 07:23:05;;;;;;;9.02;2.50;;;5.30;99.90;;;;;;5013189;28;20112;-64
2022/04/02 07:25:38;;;;;;;4.97;2.85;;;5.50;99.90;;;;;;5014474;28;20045;-63
2022/04/02 07:28:04;;;;;;;7.93;3.10;;;5.50;99.90;;;;;;4997121;28;20041;-63
2022/04/02 07:30:35;;;;;;;7.43;2.83;;;5.30;99.90;;;;;;4997194;28;20049;-63
2022/04/02 07:33:01;;;;;;;9.32;3.17;;;5.40;99.90;;;;;;5014103;28;20041;-64
2022/04/02 07:35:54;;;;;;;9.05;2.60;;;5.40;99.90;;;;;;5013775;28;20403;-63
2022/04/02 07:38:31;;;;;;;4.57;2.70;;;5.30;99.90;;;;;;4972407;28;20442;-63
2022/04/02 07:41:15;;;;;;;6.10;2.72;;;5.30;99.90;;;;;;4996792;28;20124;-64
2022/04/02 07:43:48;;;;;;;7.15;2.75;;;5.30;99.90;;;;;;4997180;28;20181;-63
2022/04/02 07:46:18;;;;;;;6.55;3.10;;;5.40;99.90;;;;;;5013275;28;20093;-64
2022/04/02 07:48:47;;;;;;;7.80;3.08;;;5.40;99.90;;;;;;4997060;28;20736;-63
2022/04/02 07:51:15;;;;;;;6.25;2.80;;;5.30;99.90;;;;;;5013085;28;20073;-64
2022/04/02 07:53:46;;;;;;;9.75;3.65;;;5.40;99.90;;;;;;5013584;28;20483;-63
2022/04/02 07:56:20;;;;;;;5.90;2.70;;;5.50;99.90;;;;;;5013509;28;20100;-63
2022/04/02 07:58:55;;;;;;;7.20;3.03;;;5.50;99.90;;;;;;5012400;28;20081;-63
2022/04/02 08:01:21;;;;;;;4.82;2.35;;;5.40;99.90;;;;;;5012088;28;20049;-63
2022/04/02 08:03:47;;;;;;;5.70;2.67;;;5.40;99.90;;;;;;5011910;28;20042;-64
2022/04/02 08:06:14;;;;;;;5.45;2.70;;;5.40;99.90;;;;;;4994239;28;20557;-63
2022/04/02 08:08:41;;;;;;;7.85;2.58;;;5.60;99.90;;;;;;4994917;28;20065;-63
2022/04/02 08:11:09;;;;;;;7.85;2.88;;;5.50;99.90;;;;;;4994658;28;20042;-64
2022/04/02 08:13:36;;;;;;;4.53;2.42;;;5.60;99.90;;;;;;5012061;28;20096;-63
2022/04/02 08:16:02;;;;;;;7.57;2.95;;;5.60;99.90;;;;;;5013499;28;20046;-63
2022/04/02 08:18:28;;;;;;;6.13;2.55;;;5.80;99.90;;;;;;5013984;28;20049;-64
2022/04/02 08:20:55;;;;;;;5.75;2.65;;;6.10;99.90;;;;;;5013823;28;20100;-65
2022/04/02 08:23:21;;;;;;;4.38;2.20;;;6.20;99.90;;;;;;5013988;28;20129;-63
2022/04/02 08:26:23;;;;;;;6.18;2.40;;;6.00;99.90;;;;;;5013946;28;20076;-65
2022/04/02 08:29:01;;;;;;;4.53;2.22;;;6.20;99.90;;;;;;4994060;28;20043;-64
2022/04/02 08:31:47;;;;;;;5.63;2.50;;;6.20;99.90;;;;;;4994240;28;20046;-63
2022/04/02 08:34:36;;;;;;;4.80;2.40;;;6.30;99.90;;;;;;4994275;28;20038;-63
2022/04/02 08:37:33;;;;;;;6.30;2.10;;;6.40;99.90;;;;;;4995291;28;20117;-63
2022/04/02 08:40:08;;;;;;;6.93;2.38;;;6.30;99.90;;;;;;5008918;28;20046;-63
2022/04/02 08:43:03;;;;;;;4.97;2.28;;;6.30;99.90;;;;;;5013546;28;20049;-63
2022/04/02 08:45:32;;;;;;;7.10;2.83;;;6.20;99.90;;;;;;5013932;28;20065;-63
2022/04/02 08:48:20;;;;;;;5.25;2.45;;;6.10;99.90;;;;;;5013426;28;20034;-63
2022/04/02 08:50:48;;;;;;;5.55;2.20;;;6.00;99.90;;;;;;5013488;28;20042;-62
2022/04/02 08:53:18;;;;;;;4.35;2.28;;;5.90;99.90;;;;;;5013748;28;20367;-62
2022/04/02 08:55:57;;;;;;;4.53;2.00;;;5.60;99.90;;;;;;5013751;28;20049;-63
2022/04/02 08:58:45;;;;;;;6.18;2.35;;;5.60;99.90;;;;;;5013101;28;20041;-65
2022/04/02 09:01:20;;;;;;;6.13;2.20;;;5.60;99.90;;;;;;5013299;28;20125;-63
2022/04/02 09:03:55;;;;;;;4.45;1.83;;;5.60;99.90;;;;;;5013705;28;20089;-64
2022/04/02 09:06:30;;;;;;;6.05;2.15;;;5.60;99.90;;;;;;5012877;28;20439;-63
2022/04/02 09:09:03;;;;;;;;;;;5.40;99.90;;;;;;4997207;28;20359;-63
2022/04/02 09:11:59;;;;;;;4.18;2.78;;;5.20;99.90;;;;;;5013237;28;20239;-63
2022/04/02 09:14:40;;;;;;;7.47;2.78;;;5.20;99.90;;;;;;4996320;28;20054;-64
2022/04/02 09:17:42;;;;;;;6.50;2.70;;;5.00;99.90;;;;;;5016251;28;20367;-64
2022/04/02 09:20:26;;;;;;;6.32;2.20;;;4.90;99.90;;;;;;4999328;28;20045;-63
2022/04/02 09:23:07;;;;;;;6.30;2.92;;;4.80;99.90;;;;;;5016701;28;20064;-64
2022/04/02 09:25:36;;;;;;;5.10;2.45;;;4.70;99.90;;;;;;4999312;28;20042;-63
2022/04/02 09:28:42;;;;;;;11.25;2.30;;;4.70;99.90;;;;;;5016740;28;20088;-63
2022/04/02 09:31:08;;;;;;;4.93;2.00;;;4.80;99.90;;;;;;4999196;28;20042;-64
2022/04/02 09:34:08;;;;;;;4.40;2.35;;;4.90;99.90;;;;;;5016684;28;20470;-63
2022/04/02 09:36:48;;;;;;;4.32;2.22;;;4.80;99.90;;;;;;4999048;28;20103;-64
2022/04/02 09:39:48;;;;;;;8.73;2.70;;;4.60;99.90;;;;;;4999396;28;20045;-64
2022/04/02 09:42:32;;;;;;;4.63;2.45;;;4.70;99.90;;;;;;5013754;28;20444;-63
2022/04/02 09:45:00;;;;;;;6.53;2.67;;;4.70;99.90;;;;;;5016240;28;20034;-63
2022/04/02 09:47:49;;;;;;;5.68;2.65;;;4.90;99.90;;;;;;4998080;28;20104;-64
2022/04/02 09:50:23;;;;;;;5.00;2.17;;;5.20;99.90;;;;;;4990730;28;20041;-64
2022/04/02 09:52:58;;;;;;;6.38;2.10;;;5.10;99.90;;;;;;5015725;28;20042;-64
2022/04/02 09:55:28;;;;;;;5.45;2.30;;;5.20;99.90;;;;;;5015326;28;20088;-65
2022/04/02 09:58:15;;;;;;;4.47;2.25;;;5.20;99.90;;;;;;5014673;28;20041;-63
2022/04/02 10:00:44;;;;;;;5.57;2.38;;;5.30;99.90;;;;;;5015593;28;20042;-64
2022/04/02 10:03:37;;;;;;;3.30;2.05;;;5.40;99.90;;;;;;5015389;28;20475;-65
2022/04/02 10:06:21;;;;;;;6.85;2.35;;;5.40;99.90;;;;;;5015725;28;20037;-64
2022/04/02 10:09:02;;;;;;;6.32;1.85;;;5.40;99.90;;;;;;4997800;28;20034;-64
2022/04/02 10:11:30;;;;;;;5.57;2.30;;;5.50;99.90;;;;;;5015581;28;20038;-64
2022/04/02 10:14:00;;;;;;;5.20;2.00;;;5.50;99.90;;;;;;5015423;28;20050;-63
2022/04/02 10:16:27;;;;;;;4.80;1.90;;;5.50;99.90;;;;;;4998056;28;20379;-64
2022/04/02 10:18:55;;;;;;;5.10;2.03;;;5.50;99.90;;;;;;5015543;28;20107;-64
2022/04/02 10:21:22;;;;;;;5.05;1.90;;;5.60;99.90;;;;;;5015103;28;20505;-64
2022/04/02 10:24:24;;;;;;;5.72;1.90;;;5.60;99.90;;;;;;5015533;28;20351;-66
2022/04/02 10:26:55;;;;;;;5.10;2.13;;;5.70;99.90;;;;;;4991803;28;20045;-64
2022/04/02 10:29:34;;;;;;;3.80;2.17;;;5.80;99.90;;;;;;4998009;28;20486;-64
2022/04/02 10:32:01;;;;;;;6.13;2.08;;;6.10;99.90;;;;;;5015328;28;20033;-63
2022/04/02 10:34:48;;;;;;;4.40;1.80;;;6.20;99.90;;;;;;4998091;28;20056;-64
2022/04/02 10:37:18;;;;;;;2.58;1.40;;;6.50;99.90;;;;;;4997360;28;20447;-64
2022/04/02 10:39:57;;;;;;;3.58;1.55;;;6.60;97.60;;;;;;5015320;28;20053;-62
2022/04/02 10:42:32;;;;;;;4.60;1.70;;;6.40;97.80;;;;;;5014573;28;20030;-64
2022/04/02 10:45:10;;;;;;;4.28;1.38;;;6.40;98.20;;;;;;5015125;28;20124;-63
2022/04/02 10:47:54;;;;;;;2.92;1.50;;;6.40;97.70;;;;;;5014626;28;20112;-64
2022/04/02 10:50:24;;;;;;;2.80;1.10;;;6.50;96.70;;;;;;5015000;28;20046;-62
2022/04/02 10:52:51;;;;;;;4.07;1.30;;;6.40;97.00;;;;;;5014591;28;20034;-67
2022/04/02 10:55:20;;;;;;;3.08;1.23;;;6.40;97.30;;;;;;5014868;28;20100;-62
2022/04/02 10:57:47;;;;;;;3.22;1.55;;;6.40;97.00;;;;;;5014542;28;20068;-65
2022/04/02 11:00:13;;;;;;;4.43;1.25;;;6.30;97.20;;;;;;4997413;28;20034;-62
2022/04/02 11:02:46;;;;;;;5.50;1.70;;;6.20;97.90;;;;;;5013595;28;20180;-62
2022/04/02 11:05:14;;;;;;;3.08;1.30;;;6.10;98.00;;;;;;5014677;28;20073;-62
2022/04/02 11:07:44;;;;;;;2.72;1.58;;;6.10;97.40;;;;;;4997187;28;21455;-62
2022/04/02 11:10:21;;;;;;;4.25;2.15;;;6.10;97.30;;;;;;5014574;28;20053;-63
2022/04/02 11:12:56;;;;;;;3.97;1.90;;;6.30;97.80;;;;;;4996535;28;20467;-64
2022/04/02 11:15:24;;;;;;;3.78;1.45;;;6.40;98.10;;;;;;5014213;28;20077;-64
2022/04/02 11:17:54;;;;;;;3.60;1.30;;;6.90;97.70;;;;;;4996810;28;20539;-64
2022/04/02 11:20:23;;;;;;;3.50;1.40;;;7.30;95.50;;;;;;5014624;28;20468;-63
2022/04/02 11:23:02;;;;;;;4.72;1.88;;;7.60;94.60;;;;;;5014248;28;20444;-64
2022/04/02 11:25:39;;;;;;;6.15;1.60;;;7.80;94.10;;;;;;5015091;28;20073;-64
2022/04/02 11:28:05;;;;;;;3.33;1.60;;;8.00;92.30;;;;;;4997089;28;20111;-64
2022/04/02 11:30:33;;;;;;;3.47;1.58;;;7.80;95.40;;;;;;5014411;28;20034;-63
2022/04/02 11:33:07;;;;;;;3.20;1.70;;;7.50;97.70;;;;;;5014478;28;20034;-64
2022/04/02 11:35:44;;;;;;;5.18;1.70;;;6.80;99.90;;;;;;4997593;28;20134;-64
2022/04/02 11:38:23;;;;;;;4.93;1.80;;;6.40;99.90;;;;;;5013521;28;20042;-64
2022/04/02 11:40:52;;;;;;;3.38;1.58;;;6.10;99.90;;;;;;5014429;28;20076;-64
2022/04/02 11:43:18;;;;;;;2.47;1.55;;;5.90;99.90;;;;;;4996995;28;20046;-64
2022/04/02 11:45:47;;;;;;;3.90;1.70;;;5.90;99.90;;;;;;5014244;28;20351;-65
2022/04/02 11:48:18;;;;;;;4.57;1.55;;;5.60;99.90;;;;;;5013716;28;20056;-64
2022/04/02 11:50:45;;;;;;;2.40;1.27;;;5.90;99.90;;;;;;5013836;28;20046;-65
2022/04/02 11:53:14;;;;;;;3.53;1.42;;;6.30;99.90;;;;;;5014311;28;20347;-63
2022/04/02 11:55:41;;;;;;;3.28;1.40;;;6.60;99.00;;;;;;4996765;28;20448;-64
2022/04/02 11:58:08;;;;;;;4.03;1.52;;;6.80;97.00;;;;;;4993285;28;20464;-64
2022/04/02 12:00:38;;;;;;;3.63;1.55;;;6.90;96.20;;;;;;4994195;28;20141;-65
2022/04/02 12:03:19;;;;;;;4.40;1.40;;;7.00;94.60;;;;;;4994436;28;20039;-65
2022/04/02 12:05:44;;;;;;;4.45;1.70;;;6.90;95.50;;;;;;4977453;28;20053;-65
2022/04/02 12:08:25;;;;;;;6.47;1.60;;;7.00;93.80;;;;;;4992311;28;20054;-63
2022/04/02 12:10:51;;;;;;;2.15;1.33;;;7.10;93.50;;;;;;4980218;28;20033;-64
2022/04/02 12:13:16;;;;;;;4.15;1.67;;;7.10;93.80;;;;;;4996582;28;20033;-64
2022/04/02 12:16:00;;;;;;;2.75;1.30;;;7.20;92.70;;;;;;5013484;28;20108;-64
2022/04/02 12:18:26;;;;;;;1.52;1.00;;;7.50;90.80;;;;;;5013788;28;20120;-64
2022/04/02 12:21:03;;;;;;;3.13;1.30;;;7.60;91.10;;;;;;5013528;28;20481;-64
2022/04/02 12:23:29;;;;;;;2.40;1.52;;;7.60;91.20;;;;;;5001889;28;20042;-64
2022/04/02 12:25:58;;;;;;;2.17;1.30;;;7.50;90.80;;;;;;4993378;28;20034;-64
2022/04/02 12:28:24;;;;;;;2.17;1.17;;;7.50;91.20;;;;;;5013491;28;20076;-65
2022/04/02 12:30:52;;;;;;;4.82;1.33;;;7.30;91.70;;;;;;4996202;28;20064;-63
2022/04/02 12:33:20;;;;;;;4.00;1.30;;;7.20;92.70;;;;;;5013953;28;20061;-64
2022/04/02 12:35:58;;;;;;;2.47;1.20;;;7.20;92.40;;;;;;4996492;28;20084;-63
2022/04/02 12:38:31;;;;;;;5.20;1.65;;;7.20;91.70;;;;;;4996341;28;20125;-65
2022/04/02 12:40:58;;;;;;;3.53;1.40;;;7.30;92.30;;;;;;5013356;28;20495;-64
2022/04/02 12:43:32;;;;;;;3.25;1.42;;;7.50;93.40;;;;;;5014178;28;20121;-66
2022/04/02 12:45:59;;;;;;;3.63;1.70;;;7.40;94.40;;;;;;4996312;28;20455;-65
2022/04/02 12:48:26;;;;;;;4.38;1.60;;;7.40;94.50;;;;;;5013361;28;20265;-64
2022/04/02 12:50:53;;;;;;;3.53;1.40;;;7.50;94.40;;;;;;5014773;28;20049;-64
2022/04/02 12:53:37;;;;;;;3.60;1.63;;;7.50;94.10;;;;;;5017560;28;20045;-64
2022/04/02 12:56:06;;;;;;;3.60;1.55;;;7.50;94.40;;;;;;5017284;28;20085;-65
2022/04/02 12:58:39;;;;;;;3.70;1.67;;;7.40;93.50;;;;;;5016828;28;20045;-68
2022/04/02 13:01:14;;;;;;;4.72;1.80;;;7.40;93.90;;;;;;4998513;28;20042;-67
2022/04/02 13:03:42;;;;;;;4.40;1.63;;;7.20;94.20;;;;;;5001642;28;20046;-64
2022/04/02 13:06:17;;;;;;;4.90;1.60;;;7.20;94.40;;;;;;4996821;28;20049;-65
2022/04/02 13:08:55;;;;;;;5.60;2.05;;;7.20;94.30;;;;;;5016449;28;20042;-63
2022/04/02 13:11:52;;;;;;;3.67;1.90;;;7.20;94.70;;;;;;5016697;28;20467;-63
2022/04/02 13:14:38;;;;;;;3.72;2.20;;;7.20;94.90;;;;;;4999449;28;20133;-64
2022/04/02 13:17:18;;;;;;;4.63;2.28;;;6.90;96.90;;;;;;5016602;28;20053;-64